Time;durP1;ratioP1;P1;durP2;ratioP2;P2;SDS_P1;SDS_P2;PMS_P1;PMS_P2;Temp;Humidity;BMP_temperature;BMP_pressure;BME280_temperature;BME280_humidity;BME280_pressure;Samples;Min_cycle;Max_cycle;Signal;HPM_P1;HPM_P2
2022/09/02 00:00:34;;;;;;;5.22;2.38;;;14.80;99.90;;;;;;5111953;28;20039;-62
2022/09/02 00:02:59;;;;;;;5.90;2.17;;;14.80;99.90;;;;;;5112108;28;20369;-63
2022/09/02 00:05:25;;;;;;;5.28;2.38;;;14.80;99.90;;;;;;5111366;28;20074;-62
2022/09/02 00:07:50;;;;;;;4.43;2.10;;;14.80;99.90;;;;;;5113114;28;20434;-63
2022/09/02 00:10:16;;;;;;;5.00;2.30;;;14.70;99.90;;;;;;5112395;28;20377;-63
2022/09/02 00:12:42;;;;;;;6.80;2.38;;;14.70;99.90;;;;;;5111116;28;20066;-63
2022/09/02 00:15:08;;;;;;;4.90;2.42;;;14.70;99.90;;;;;;5112433;28;20043;-63
2022/09/02 00:17:34;;;;;;;4.70;2.20;;;14.70;99.90;;;;;;5112638;28;20055;-63
2022/09/02 00:19:59;;;;;;;4.75;2.47;;;14.60;99.90;;;;;;5110648;28;20043;-63
2022/09/02 00:22:25;;;;;;;4.85;2.40;;;14.60;99.90;;;;;;5093951;28;20040;-63
2022/09/02 00:24:51;;;;;;;4.28;2.25;;;14.60;99.90;;;;;;5111563;28;20106;-62
2022/09/02 00:27:16;;;;;;;4.05;2.20;;;14.50;99.90;;;;;;5110386;28;20451;-63
2022/09/02 00:29:42;;;;;;;4.80;2.65;;;14.50;99.90;;;;;;5094486;28;20039;-63
2022/09/02 00:32:07;;;;;;;5.85;2.40;;;14.50;99.90;;;;;;5110828;28;20040;-63
2022/09/02 00:34:33;;;;;;;5.10;2.53;;;14.40;99.90;;;;;;5111880;28;20144;-63
2022/09/02 00:36:59;;;;;;;4.85;2.28;;;14.40;99.90;;;;;;5111613;28;20046;-63
2022/09/02 00:39:25;;;;;;;6.30;2.78;;;14.40;99.90;;;;;;5112093;28;20035;-63
2022/09/02 00:41:51;;;;;;;4.30;2.25;;;14.30;99.90;;;;;;5111928;28;20101;-63
2022/09/02 00:44:18;;;;;;;5.53;2.30;;;14.30;99.90;;;;;;5110831;28;20043;-63
2022/09/02 00:46:45;;;;;;;5.95;2.50;;;14.30;99.90;;;;;;5111319;28;20032;-63
2022/09/02 00:49:27;;;;;;;6.00;2.35;;;14.30;99.90;;;;;;5111267;28;20044;-63
2022/09/02 00:52:04;;;;;;;5.85;2.13;;;14.20;99.90;;;;;;5112476;28;20548;-63
2022/09/02 00:54:32;;;;;;;5.47;2.30;;;14.20;99.90;;;;;;5093582;28;20039;-63
2022/09/02 00:57:02;;;;;;;4.53;2.10;;;14.10;99.90;;;;;;5111345;28;20035;-63
2022/09/02 00:59:54;;;;;;;5.75;2.03;;;14.10;99.90;;;;;;5111244;28;20039;-63
2022/09/02 01:02:22;;;;;;;3.95;2.13;;;14.10;99.90;;;;;;5075334;28;20044;-63
2022/09/02 01:04:48;;;;;;;4.80;2.90;;;14.10;99.90;;;;;;5112480;28;20036;-63
2022/09/02 01:07:14;;;;;;;6.15;2.67;;;14.10;99.90;;;;;;5111812;28;20054;-63
2022/09/02 01:09:41;;;;;;;4.05;2.00;;;14.00;99.90;;;;;;5110027;28;20043;-63
2022/09/02 01:12:07;;;;;;;3.15;1.60;;;14.00;99.90;;;;;;5110927;28;20085;-63
2022/09/02 01:14:34;;;;;;;4.97;2.03;;;14.00;99.90;;;;;;5112519;28;20035;-63
2022/09/02 01:17:01;;;;;;;3.80;1.88;;;13.90;99.90;;;;;;5111164;28;20059;-63
2022/09/02 01:19:58;;;;;;;3.88;1.80;;;13.90;99.90;;;;;;5114518;28;20051;-63
2022/09/02 01:22:27;;;;;;;3.90;1.90;;;13.90;99.90;;;;;;5093512;28;20077;-63
2022/09/02 01:24:56;;;;;;;4.28;1.70;;;13.80;99.90;;;;;;5114845;28;20046;-63
2022/09/02 01:27:22;;;;;;;4.07;1.98;;;13.80;99.90;;;;;;5114480;28;20039;-63
2022/09/02 01:29:53;;;;;;;4.45;1.95;;;13.80;99.90;;;;;;5115442;27;20122;-63
2022/09/02 01:32:20;;;;;;;4.00;2.05;;;13.80;99.90;;;;;;5114598;28;20429;-63
2022/09/02 01:34:46;;;;;;;5.28;2.22;;;13.70;99.90;;;;;;5114892;28;20392;-63
2022/09/02 01:37:12;;;;;;;4.00;2.03;;;13.70;99.90;;;;;;5113577;28;20036;-62
2022/09/02 01:39:37;;;;;;;3.92;1.92;;;13.70;99.90;;;;;;5114515;28;20043;-63
2022/09/02 01:42:03;;;;;;;4.82;2.28;;;13.70;99.90;;;;;;5097019;28;20503;-63
2022/09/02 01:44:29;;;;;;;5.18;1.95;;;13.60;99.90;;;;;;5114047;28;20046;-62
2022/09/02 01:46:55;;;;;;;4.25;2.20;;;13.60;99.90;;;;;;5114440;28;20028;-63
2022/09/02 01:49:21;;;;;;;5.47;2.40;;;13.60;99.90;;;;;;5113645;28;20046;-63
2022/09/02 01:51:48;;;;;;;5.13;1.90;;;13.60;99.90;;;;;;5113593;28;20040;-63
2022/09/02 01:54:14;;;;;;;5.82;2.38;;;13.60;99.90;;;;;;5115140;27;20115;-63
2022/09/02 01:56:40;;;;;;;4.72;2.33;;;13.50;99.90;;;;;;5114236;28;20506;-63
2022/09/02 01:59:10;;;;;;;4.45;2.08;;;13.50;99.90;;;;;;5114159;28;20032;-63
2022/09/02 02:01:36;;;;;;;5.55;2.00;;;13.50;99.90;;;;;;5117352;27;20075;-63
2022/09/02 02:04:03;;;;;;;5.40;2.20;;;13.50;99.90;;;;;;5097002;28;20082;-62
2022/09/02 02:06:29;;;;;;;5.22;2.40;;;13.40;99.90;;;;;;5114831;28;20090;-63
2022/09/02 02:08:54;;;;;;;4.25;2.15;;;13.40;99.90;;;;;;5097091;28;20070;-63
2022/09/02 02:11:23;;;;;;;3.58;1.92;;;13.40;99.90;;;;;;5096813;28;20521;-63
2022/09/02 02:13:49;;;;;;;4.85;1.70;;;13.40;99.90;;;;;;5079885;28;20050;-62
2022/09/02 02:16:15;;;;;;;4.70;2.33;;;13.30;99.90;;;;;;5115566;27;20110;-63
2022/09/02 02:18:41;;;;;;;4.70;2.30;;;13.40;99.90;;;;;;5095791;28;20096;-63
2022/09/02 02:21:07;;;;;;;4.75;2.22;;;13.40;99.90;;;;;;5096261;28;20046;-63
2022/09/02 02:23:33;;;;;;;5.60;1.92;;;13.30;99.90;;;;;;5115222;28;20039;-63
2022/09/02 02:25:59;;;;;;;4.50;2.10;;;13.30;99.90;;;;;;5095971;28;20036;-63
2022/09/02 02:28:25;;;;;;;4.22;2.30;;;13.30;99.90;;;;;;5113857;28;20039;-63
2022/09/02 02:30:51;;;;;;;6.20;2.60;;;13.30;99.90;;;;;;5124542;27;20047;-63
2022/09/02 02:33:16;;;;;;;4.45;2.38;;;13.30;99.90;;;;;;5115716;27;20031;-63
2022/09/02 02:35:42;;;;;;;5.57;2.30;;;13.30;99.90;;;;;;5117337;27;20387;-62
2022/09/02 02:38:09;;;;;;;4.25;2.10;;;13.30;99.90;;;;;;5116257;27;20068;-62
2022/09/02 02:40:35;;;;;;;6.82;2.65;;;13.30;99.90;;;;;;5099041;27;20483;-62
2022/09/02 02:43:01;;;;;;;4.45;2.20;;;13.20;99.90;;;;;;5116923;27;20046;-63
2022/09/02 02:45:27;;;;;;;5.65;2.70;;;13.20;99.90;;;;;;5104824;28;20044;-62
2022/09/02 02:47:53;;;;;;;5.60;2.60;;;13.20;99.90;;;;;;5110491;27;20127;-62
2022/09/02 02:50:21;;;;;;;4.57;2.50;;;13.20;99.90;;;;;;5122909;27;20461;-63
2022/09/02 02:52:47;;;;;;;4.32;2.28;;;13.20;99.90;;;;;;5086988;27;20046;-63
2022/09/02 02:55:13;;;;;;;4.07;2.20;;;13.10;99.90;;;;;;5114928;27;20098;-62
2022/09/02 02:57:41;;;;;;;4.68;2.40;;;13.10;99.90;;;;;;5116969;27;20381;-62
2022/09/02 03:00:07;;;;;;;4.88;2.45;;;13.10;99.90;;;;;;5134148;27;20043;-63
2022/09/02 03:02:33;;;;;;;5.72;2.70;;;13.00;99.90;;;;;;5113859;27;20395;-63
2022/09/02 03:05:00;;;;;;;5.47;2.88;;;13.00;99.90;;;;;;5114494;27;20038;-62
2022/09/02 03:07:26;;;;;;;4.95;2.78;;;12.90;99.90;;;;;;5114084;28;20040;-63
2022/09/02 03:09:52;;;;;;;5.10;2.40;;;12.90;99.90;;;;;;5113661;28;20082;-63
2022/09/02 03:12:18;;;;;;;4.78;2.80;;;12.80;99.90;;;;;;5095723;28;20075;-63
2022/09/02 03:14:43;;;;;;;6.22;2.55;;;12.80;99.90;;;;;;5113109;28;20035;-62
2022/09/02 03:17:09;;;;;;;5.10;2.90;;;12.80;99.90;;;;;;5113474;28;20111;-63
2022/09/02 03:19:35;;;;;;;5.00;2.53;;;12.80;99.90;;;;;;5095713;28;20047;-62
2022/09/02 03:22:02;;;;;;;4.45;2.65;;;12.80;99.90;;;;;;5094927;28;20120;-63
2022/09/02 03:24:28;;;;;;;5.15;2.80;;;12.70;99.90;;;;;;5109671;27;20032;-63
2022/09/02 03:26:54;;;;;;;3.85;2.13;;;12.70;99.90;;;;;;5115907;27;20031;-63
2022/09/02 03:29:19;;;;;;;5.78;2.60;;;12.70;99.90;;;;;;5133154;27;20035;-63
2022/09/02 03:31:45;;;;;;;4.35;2.83;;;12.70;99.90;;;;;;5099470;27;20080;-63
2022/09/02 03:34:11;;;;;;;4.47;2.80;;;12.70;99.90;;;;;;5133583;27;20043;-63
2022/09/02 03:36:38;;;;;;;4.25;2.30;;;12.70;99.90;;;;;;5119972;27;20039;-63
2022/09/02 03:39:07;;;;;;;5.00;2.35;;;12.60;99.90;;;;;;5094297;28;20118;-63
2022/09/02 03:41:33;;;;;;;6.70;2.83;;;12.60;99.90;;;;;;5095132;28;20081;-63
2022/09/02 03:44:00;;;;;;;5.00;2.50;;;12.70;99.90;;;;;;5094445;28;20119;-63
2022/09/02 03:46:25;;;;;;;5.03;2.58;;;12.60;99.90;;;;;;5092521;28;20145;-63
2022/09/02 03:48:51;;;;;;;4.70;2.63;;;12.60;99.90;;;;;;5089361;27;20538;-63
2022/09/02 03:51:18;;;;;;;6.47;3.03;;;12.60;99.90;;;;;;5132718;27;20092;-63
2022/09/02 03:53:44;;;;;;;5.43;2.97;;;12.60;99.90;;;;;;5133796;27;20035;-63
2022/09/02 03:56:13;;;;;;;5.57;2.90;;;12.60;99.90;;;;;;5123977;27;20044;-63
2022/09/02 03:58:39;;;;;;;5.85;2.88;;;12.60;99.90;;;;;;5094148;28;20468;-63
2022/09/02 04:01:05;;;;;;;6.15;2.80;;;12.50;99.90;;;;;;5094386;28;20503;-63
2022/09/02 04:03:31;;;;;;;4.80;2.38;;;12.50;99.90;;;;;;5094812;28;20039;-63
2022/09/02 04:05:57;;;;;;;4.93;2.47;;;12.50;99.90;;;;;;5077300;28;20044;-63
2022/09/02 04:08:23;;;;;;;5.03;2.55;;;12.50;99.90;;;;;;5094288;28;20043;-63
2022/09/02 04:10:49;;;;;;;4.07;2.22;;;12.50;99.90;;;;;;5112909;28;20045;-63
2022/09/02 04:13:15;;;;;;;5.88;2.33;;;12.40;99.90;;;;;;5091032;28;20032;-63
2022/09/02 04:15:43;;;;;;;4.65;2.30;;;12.40;99.90;;;;;;5074536;28;20072;-63
2022/09/02 04:18:10;;;;;;;5.68;2.75;;;12.40;99.90;;;;;;5072946;28;20523;-63
2022/09/02 04:20:40;;;;;;;10.50;2.70;;;12.40;99.90;;;;;;5110623;27;20035;-63
2022/09/02 04:23:06;;;;;;;5.18;3.00;;;12.40;99.90;;;;;;5114596;28;20064;-63
2022/09/02 04:25:32;;;;;;;5.03;2.47;;;12.40;99.90;;;;;;5132809;27;20081;-63
2022/09/02 04:27:58;;;;;;;4.70;2.75;;;12.40;99.90;;;;;;5102972;28;20036;-63
2022/09/02 04:30:24;;;;;;;7.35;2.60;;;12.30;99.90;;;;;;5104875;27;20077;-63
2022/09/02 04:32:51;;;;;;;4.82;2.92;;;12.30;99.90;;;;;;5114432;28;20062;-63
2022/09/02 04:35:17;;;;;;;4.88;2.97;;;12.30;99.90;;;;;;5097252;28;20035;-63
2022/09/02 04:37:46;;;;;;;4.97;2.60;;;12.30;99.90;;;;;;5095882;28;20038;-63
2022/09/02 04:40:11;;;;;;;5.78;3.10;;;12.30;99.90;;;;;;5095288;28;20101;-63
2022/09/02 04:42:37;;;;;;;5.43;3.00;;;12.20;99.90;;;;;;5074218;28;20037;-63
2022/09/02 04:45:03;;;;;;;5.65;2.42;;;12.30;99.90;;;;;;5073828;28;20036;-63
2022/09/02 04:47:29;;;;;;;5.63;3.08;;;12.20;99.90;;;;;;5111413;28;20441;-63
2022/09/02 04:49:55;;;;;;;9.98;2.92;;;12.20;99.90;;;;;;5132751;28;20057;-63
2022/09/02 04:52:21;;;;;;;6.53;3.03;;;12.20;99.90;;;;;;5136247;27;20039;-63
2022/09/02 04:54:47;;;;;;;5.55;3.08;;;12.20;99.90;;;;;;5118348;27;20054;-63
2022/09/02 04:57:12;;;;;;;4.95;2.63;;;12.20;99.90;;;;;;5118538;27;20047;-63
2022/09/02 04:59:38;;;;;;;4.28;2.80;;;12.20;99.90;;;;;;5118799;27;20380;-63
2022/09/02 05:02:04;;;;;;;7.50;3.15;;;12.10;99.90;;;;;;5075512;27;20391;-63
2022/09/02 05:04:32;;;;;;;5.88;2.88;;;12.10;99.90;;;;;;5108454;28;20103;-63
2022/09/02 05:07:00;;;;;;;6.03;2.53;;;12.10;99.90;;;;;;5081335;28;20494;-63
2022/09/02 05:09:27;;;;;;;6.00;2.80;;;12.10;99.90;;;;;;5098008;27;20496;-63
2022/09/02 05:11:56;;;;;;;5.80;2.97;;;12.10;99.90;;;;;;5137365;27;20099;-63
2022/09/02 05:14:26;;;;;;;4.70;2.58;;;12.10;99.90;;;;;;5117900;27;20091;-63
2022/09/02 05:16:52;;;;;;;6.05;2.90;;;12.10;99.90;;;;;;5118495;27;20054;-63
2022/09/02 05:19:22;;;;;;;6.15;2.80;;;12.10;99.90;;;;;;5116819;27;20048;-63
2022/09/02 05:21:49;;;;;;;5.20;2.67;;;12.10;99.90;;;;;;5077002;28;20047;-63
2022/09/02 05:24:16;;;;;;;5.22;2.90;;;12.20;99.90;;;;;;5102914;27;20050;-63
2022/09/02 05:26:43;;;;;;;5.25;2.97;;;12.20;99.90;;;;;;5118478;27;20043;-63
2022/09/02 05:29:10;;;;;;;5.32;3.22;;;12.20;99.90;;;;;;5135349;27;20084;-63
2022/09/02 05:31:37;;;;;;;6.05;2.55;;;12.20;99.90;;;;;;5136467;27;20483;-63
2022/09/02 05:34:03;;;;;;;4.50;2.40;;;12.20;99.90;;;;;;5116605;27;20039;-63
2022/09/02 05:36:31;;;;;;;5.07;2.90;;;12.30;99.90;;;;;;5096039;28;20499;-63
2022/09/02 05:38:58;;;;;;;5.55;3.00;;;12.30;99.90;;;;;;5095627;28;20074;-63
2022/09/02 05:41:24;;;;;;;6.70;3.00;;;12.30;99.90;;;;;;5077067;28;20040;-63
2022/09/02 05:43:52;;;;;;;6.72;2.83;;;12.30;99.90;;;;;;5076663;28;20051;-63
2022/09/02 05:46:22;;;;;;;6.40;3.15;;;12.40;99.90;;;;;;5077101;28;20541;-63
2022/09/02 05:49:06;;;;;;;7.22;2.90;;;12.40;99.90;;;;;;5105532;27;20458;-63
2022/09/02 05:51:44;;;;;;;7.78;3.15;;;12.50;99.90;;;;;;5097169;28;20036;-63
2022/09/02 05:54:24;;;;;;;6.75;3.65;;;12.50;99.90;;;;;;5115063;28;20083;-63
2022/09/02 05:56:52;;;;;;;5.38;3.15;;;12.50;99.90;;;;;;5096715;28;20035;-63
2022/09/02 05:59:19;;;;;;;6.30;2.65;;;12.60;99.90;;;;;;5091179;27;20121;-63
2022/09/02 06:01:46;;;;;;;7.05;2.60;;;12.60;99.90;;;;;;5117916;27;20031;-63
2022/09/02 06:04:13;;;;;;;5.00;2.88;;;12.70;99.90;;;;;;5115324;27;20042;-63
2022/09/02 06:06:39;;;;;;;5.57;2.80;;;12.80;99.90;;;;;;5135727;27;20566;-63
2022/09/02 06:09:07;;;;;;;7.43;3.13;;;12.90;99.90;;;;;;5116115;27;20118;-63
2022/09/02 06:11:33;;;;;;;7.28;3.47;;;12.90;99.90;;;;;;5135196;27;20043;-63
2022/09/02 06:14:00;;;;;;;5.45;3.03;;;13.00;99.90;;;;;;5114124;27;20043;-63
2022/09/02 06:16:26;;;;;;;5.15;3.10;;;13.10;99.90;;;;;;5114903;28;20056;-63
2022/09/02 06:18:52;;;;;;;6.82;3.00;;;13.10;99.90;;;;;;5095982;28;20052;-63
2022/09/02 06:21:19;;;;;;;5.78;2.78;;;13.20;99.90;;;;;;5096210;28;20040;-63
2022/09/02 06:23:45;;;;;;;5.40;2.50;;;13.30;99.90;;;;;;5115182;28;20068;-63
2022/09/02 06:26:12;;;;;;;5.88;2.42;;;13.30;99.90;;;;;;5113784;28;20127;-63
2022/09/02 06:28:39;;;;;;;6.18;3.30;;;13.40;99.90;;;;;;5094756;28;20443;-63
2022/09/02 06:31:15;;;;;;;6.35;3.33;;;13.50;99.90;;;;;;5094238;28;20054;-63
2022/09/02 06:33:43;;;;;;;4.53;2.85;;;13.60;99.90;;;;;;5111351;27;20522;-63
2022/09/02 06:36:14;;;;;;;5.90;2.70;;;13.70;99.90;;;;;;5097140;27;20047;-63
2022/09/02 06:38:42;;;;;;;5.05;2.50;;;13.70;99.90;;;;;;5094758;28;20035;-63
2022/09/02 06:41:11;;;;;;;5.47;3.00;;;13.80;99.90;;;;;;5091598;28;20046;-63
2022/09/02 06:43:36;;;;;;;5.15;3.03;;;14.00;99.90;;;;;;5076093;28;20035;-63
2022/09/02 06:46:03;;;;;;;5.90;2.92;;;14.00;99.90;;;;;;5092708;28;20096;-63
2022/09/02 06:48:28;;;;;;;7.88;2.80;;;14.20;99.90;;;;;;5092809;28;20043;-63
2022/09/02 06:50:54;;;;;;;5.18;2.70;;;14.30;99.90;;;;;;5110445;27;20039;-63
2022/09/02 06:53:20;;;;;;;5.03;2.67;;;14.40;99.90;;;;;;5097155;28;20396;-64
2022/09/02 06:55:46;;;;;;;6.57;2.65;;;14.50;99.90;;;;;;5092804;27;20051;-62
2022/09/02 06:58:13;;;;;;;5.45;2.33;;;14.60;99.90;;;;;;5131575;27;20043;-62
2022/09/02 07:00:40;;;;;;;5.45;2.67;;;14.80;99.90;;;;;;5080084;28;20032;-62
2022/09/02 07:06:10;;;;;;;4.82;2.53;;;15.00;99.90;;;;;;5112883;27;20054;-62
2022/09/02 07:08:37;;;;;;;5.47;2.10;;;15.20;99.90;;;;;;5108885;27;20046;-62
2022/09/02 07:11:04;;;;;;;6.50;2.58;;;15.20;99.90;;;;;;5105123;28;20050;-62
2022/09/02 07:13:29;;;;;;;4.40;2.47;;;15.30;99.90;;;;;;5093782;28;20043;-62
2022/09/02 07:15:55;;;;;;;5.45;2.70;;;15.40;99.90;;;;;;5113940;27;20810;-62
2022/09/02 07:18:21;;;;;;;5.72;2.45;;;15.50;99.90;;;;;;5093883;28;20055;-63
2022/09/02 07:20:47;;;;;;;3.97;2.20;;;15.60;99.90;;;;;;5111159;28;20040;-63
2022/09/02 07:23:13;;;;;;;4.25;2.40;;;15.70;99.90;;;;;;5091619;28;20438;-63
2022/09/02 07:25:42;;;;;;;4.38;2.30;;;15.80;99.90;;;;;;5110946;28;20028;-63
2022/09/02 07:28:09;;;;;;;4.78;2.72;;;16.00;99.90;;;;;;5120850;27;20039;-63
2022/09/02 07:30:36;;;;;;;4.40;2.33;;;16.00;99.90;;;;;;5093099;28;20040;-64
2022/09/02 07:33:01;;;;;;;5.15;2.78;;;16.10;99.90;;;;;;5110740;28;20054;-63
2022/09/02 07:35:28;;;;;;;5.38;2.25;;;16.20;99.90;;;;;;5075157;28;20039;-63
2022/09/02 07:37:54;;;;;;;6.15;2.40;;;16.30;99.90;;;;;;5092162;28;20071;-63
2022/09/02 07:40:19;;;;;;;5.50;2.05;;;16.40;99.90;;;;;;5109163;27;20115;-63
2022/09/02 07:42:45;;;;;;;5.65;2.28;;;16.50;99.90;;;;;;5097972;28;20381;-64
2022/09/02 07:45:11;;;;;;;4.35;2.42;;;16.60;99.90;;;;;;5112571;28;20426;-64
2022/09/02 07:47:37;;;;;;;7.28;2.15;;;16.70;99.90;;;;;;5095100;28;20042;-64
2022/09/02 07:50:03;;;;;;;7.78;2.15;;;16.80;99.90;;;;;;5111777;27;20387;-63
2022/09/02 07:52:29;;;;;;;5.22;2.00;;;16.90;99.90;;;;;;5083209;27;20039;-63
2022/09/02 07:54:55;;;;;;;6.57;2.50;;;17.10;99.90;;;;;;5109172;28;20484;-64
2022/09/02 07:57:21;;;;;;;4.13;2.00;;;17.20;99.90;;;;;;5087868;28;20039;-63
2022/09/02 07:59:46;;;;;;;5.53;1.95;;;17.30;99.90;;;;;;5074828;28;20054;-63
2022/09/02 08:02:13;;;;;;;4.88;1.85;;;17.40;99.90;;;;;;5109931;28;20036;-64
2022/09/02 08:04:39;;;;;;;5.07;1.90;;;17.50;99.90;;;;;;5091729;28;20356;-64
2022/09/02 08:07:05;;;;;;;3.97;1.90;;;17.50;99.90;;;;;;5074618;28;20035;-64
2022/09/02 08:09:31;;;;;;;5.20;1.88;;;17.70;99.90;;;;;;5090789;28;20067;-64
2022/09/02 08:11:57;;;;;;;3.90;2.05;;;17.70;99.90;;;;;;5091526;28;20539;-64
2022/09/02 08:14:26;;;;;;;5.60;2.17;;;17.80;99.90;;;;;;5076300;28;20150;-65
2022/09/02 08:16:53;;;;;;;5.45;1.75;;;17.90;99.90;;;;;;5092084;28;20051;-65
2022/09/02 08:19:21;;;;;;;4.80;2.08;;;18.00;99.90;;;;;;5110978;27;20083;-64
2022/09/02 08:21:47;;;;;;;4.28;2.20;;;18.20;99.90;;;;;;5114041;27;20082;-64
2022/09/02 08:24:13;;;;;;;3.42;1.45;;;18.20;99.90;;;;;;5110932;27;20063;-64
2022/09/02 08:26:39;;;;;;;3.05;1.50;;;18.20;99.90;;;;;;5091387;28;20391;-64
2022/09/02 08:29:06;;;;;;;4.97;2.45;;;18.30;99.90;;;;;;5112648;27;20039;-64
2022/09/02 08:31:33;;;;;;;4.47;1.77;;;18.40;99.90;;;;;;5124944;27;20042;-65
2022/09/02 08:33:59;;;;;;;5.15;1.92;;;18.50;99.90;;;;;;5096033;28;20567;-65
2022/09/02 08:36:26;;;;;;;4.10;1.75;;;18.60;99.90;;;;;;5080461;28;20043;-65
2022/09/02 08:38:51;;;;;;;6.03;2.03;;;18.70;99.90;;;;;;5090873;28;20492;-65
2022/09/02 08:41:28;;;;;;;5.10;1.88;;;18.80;99.90;;;;;;5092327;28;20085;-65
2022/09/02 08:43:58;;;;;;;6.25;2.17;;;18.90;99.90;;;;;;5109820;28;20082;-65
2022/09/02 08:46:26;;;;;;;3.95;1.60;;;19.00;99.90;;;;;;5129561;28;20054;-64
2022/09/02 08:48:54;;;;;;;4.50;1.63;;;19.10;99.90;;;;;;5076542;28;20514;-65
2022/09/02 08:51:26;;;;;;;8.00;2.42;;;19.10;99.90;;;;;;5106209;28;20561;-65
2022/09/02 08:54:21;;;;;;;3.58;1.50;;;19.20;99.90;;;;;;5088049;28;20048;-64
2022/09/02 08:56:50;;;;;;;2.88;1.60;;;19.30;99.90;;;;;;5089922;28;20455;-64
2022/09/02 08:59:21;;;;;;;4.35;1.58;;;19.30;99.90;;;;;;5089225;28;20070;-65
2022/09/02 09:01:53;;;;;;;4.15;1.60;;;19.40;99.90;;;;;;5071690;28;20051;-64
2022/09/02 09:04:51;;;;;;;4.47;1.45;;;19.50;99.60;;;;;;5072384;28;20035;-64
2022/09/02 09:07:30;;;;;;;7.50;1.67;;;19.50;98.80;;;;;;5099028;28;20061;-63
2022/09/02 09:10:20;;;;;;;3.50;1.50;;;19.60;98.50;;;;;;5112681;28;20043;-63
2022/09/02 09:13:09;;;;;;;3.58;1.38;;;19.70;97.90;;;;;;5121325;28;20043;-63
2022/09/02 09:16:10;;;;;;;3.40;1.60;;;19.70;96.80;;;;;;5113569;28;20043;-63
2022/09/02 09:18:47;;;;;;;4.15;1.80;;;19.80;97.20;;;;;;5121346;28;20044;-63
2022/09/02 09:21:13;;;;;;;4.13;1.30;;;19.90;96.80;;;;;;5075702;28;20483;-63
2022/09/02 09:23:39;;;;;;;3.75;1.33;;;19.90;96.10;;;;;;5115139;28;20040;-63
2022/09/02 09:26:26;;;;;;;3.55;1.20;;;20.00;95.80;;;;;;5098864;28;20050;-62
2022/09/02 09:28:54;;;;;;;6.65;1.35;;;20.10;95.00;;;;;;5113190;28;20036;-62
2022/09/02 09:31:22;;;;;;;5.32;1.40;;;20.30;94.70;;;;;;5076950;28;20110;-62
2022/09/02 09:34:14;;;;;;;3.20;1.23;;;20.30;94.50;;;;;;5111847;28;20616;-62
2022/09/02 09:36:39;;;;;;;4.70;1.52;;;20.50;93.70;;;;;;5106747;28;20096;-62
2022/09/02 09:39:29;;;;;;;2.97;1.25;;;20.50;93.50;;;;;;5096028;28;20048;-62
2022/09/02 09:42:11;;;;;;;4.35;1.40;;;20.60;92.80;;;;;;5105393;27;20118;-63
2022/09/02 09:44:43;;;;;;;5.00;1.60;;;20.60;92.40;;;;;;5118292;27;20031;-62
2022/09/02 09:47:29;;;;;;;3.33;1.30;;;20.70;91.90;;;;;;5117436;27;20031;-62
2022/09/02 09:50:10;;;;;;;5.57;1.25;;;20.80;91.30;;;;;;5099500;27;20082;-62
2022/09/02 09:52:36;;;;;;;3.25;1.30;;;20.90;90.70;;;;;;5128359;27;20433;-62
2022/09/02 09:55:16;;;;;;;6.40;1.30;;;20.90;91.20;;;;;;5080502;28;20082;-62
2022/09/02 09:57:44;;;;;;;4.93;1.65;;;21.10;90.30;;;;;;5114770;27;20044;-62
2022/09/02 10:00:26;;;;;;;3.35;1.23;;;21.10;90.70;;;;;;5096619;28;20044;-62
2022/09/02 10:02:55;;;;;;;4.82;1.40;;;21.20;90.10;;;;;;5096449;28;20047;-62
2022/09/02 10:05:24;;;;;;;4.20;1.50;;;21.10;88.60;;;;;;5079862;28;20047;-63
2022/09/02 10:07:58;;;;;;;3.92;1.20;;;21.20;87.90;;;;;;5115565;28;20045;-62
2022/09/02 10:10:26;;;;;;;6.10;1.50;;;21.20;87.60;;;;;;5096050;28;20123;-62
2022/09/02 10:12:56;;;;;;;3.67;1.40;;;21.30;88.50;;;;;;5093660;28;20047;-62
2022/09/02 10:15:44;;;;;;;4.45;1.27;;;21.40;87.90;;;;;;5059611;28;20048;-62
2022/09/02 10:18:33;;;;;;;3.95;1.38;;;21.40;85.60;;;;;;5124024;27;20059;-63
2022/09/02 10:21:32;;;;;;;9.50;1.75;;;21.40;84.40;;;;;;5117635;27;20093;-63
2022/09/02 10:24:25;;;;;;;4.05;1.50;;;21.40;85.10;;;;;;5108995;27;20066;-63
2022/09/02 10:26:56;;;;;;;4.22;1.25;;;21.50;85.20;;;;;;5115213;28;20039;-63
2022/09/02 10:29:51;;;;;;;2.55;1.17;;;21.60;85.40;;;;;;5096366;28;20628;-64
2022/09/02 10:32:32;;;;;;;4.22;1.20;;;21.60;83.40;;;;;;5095404;28;20044;-63
2022/09/02 10:35:05;;;;;;;5.30;1.35;;;21.70;82.40;;;;;;5096985;28;20471;-65
2022/09/02 10:37:41;;;;;;;7.23;1.70;;;21.70;81.90;;;;;;5126600;27;20483;-64
2022/09/02 10:40:24;;;;;;;2.20;1.10;;;21.80;82.20;;;;;;5104061;28;20369;-64
2022/09/02 10:43:06;;;;;;;3.25;1.20;;;21.80;80.30;;;;;;5107312;28;20122;-64
2022/09/02 10:45:52;;;;;;;4.68;1.20;;;21.80;78.10;;;;;;5113946;28;20118;-64
2022/09/02 10:48:40;;;;;;;4.47;1.42;;;21.90;77.80;;;;;;5113934;28;20040;-64
2022/09/02 10:51:29;;;;;;;6.90;1.30;;;21.90;76.80;;;;;;5097185;28;20114;-65
2022/09/02 10:54:29;;;;;;;4.30;1.40;;;21.90;76.40;;;;;;5113716;28;20120;-64
2022/09/02 10:57:05;;;;;;;4.47;1.33;;;22.10;76.80;;;;;;5096298;28;20035;-64
2022/09/02 10:59:53;;;;;;;4.07;1.10;;;22.10;75.80;;;;;;5095452;28;20040;-64
2022/09/02 11:02:40;;;;;;;5.57;1.65;;;22.10;75.10;;;;;;5096040;28;20051;-65
2022/09/02 11:05:16;;;;;;;3.00;1.23;;;22.10;74.70;;;;;;5117059;27;20558;-64
2022/09/02 11:08:14;;;;;;;3.38;1.25;;;22.10;75.50;;;;;;5113509;28;20043;-64
2022/09/02 11:10:55;;;;;;;4.68;1.42;;;22.10;74.80;;;;;;5076678;28;20043;-64
2022/09/02 11:13:30;;;;;;;4.22;1.00;;;22.30;74.00;;;;;;5089997;28;20480;-64
2022/09/02 11:16:17;;;;;;;5.45;1.40;;;22.40;73.40;;;;;;5116473;27;20492;-64
2022/09/02 11:18:54;;;;;;;2.55;1.10;;;22.40;71.30;;;;;;5115989;27;20047;-64
2022/09/02 11:21:58;;;;;;;3.25;1.50;;;22.40;71.40;;;;;;5114837;27;20383;-64
2022/09/02 11:24:46;;;;;;;2.60;1.23;;;22.50;71.00;;;;;;5049282;27;20130;-64
2022/09/02 11:27:35;;;;;;;2.92;0.90;;;22.40;72.30;;;;;;5133280;27;20118;-64
2022/09/02 11:30:32;;;;;;;4.18;1.02;;;22.50;72.20;;;;;;5115914;27;20053;-65
2022/09/02 11:33:13;;;;;;;2.88;1.17;;;22.50;73.60;;;;;;5077392;27;20463;-65
2022/09/02 11:35:38;;;;;;;3.72;1.27;;;22.60;71.10;;;;;;5133685;27;20057;-65
2022/09/02 11:38:35;;;;;;;3.80;1.67;;;22.60;71.70;;;;;;5115243;27;20043;-64
2022/09/02 11:42:02;;;;;;;3.15;1.20;;;22.60;70.10;;;;;;5115779;27;20540;-64
2022/09/02 11:44:55;;;;;;;3.55;1.20;;;22.60;70.20;;;;;;5018451;28;20085;-64
2022/09/02 11:47:40;;;;;;;2.28;1.00;;;22.50;71.10;;;;;;4996544;28;20437;-64
2022/09/02 11:50:23;;;;;;;3.60;1.35;;;22.60;70.40;;;;;;5088128;27;20045;-64
2022/09/02 11:53:16;;;;;;;4.57;1.30;;;22.60;68.80;;;;;;5099665;27;20062;-64
2022/09/02 11:56:06;;;;;;;7.28;1.30;;;22.60;68.70;;;;;;5081475;28;20134;-64
2022/09/02 11:58:36;;;;;;;5.38;1.55;;;22.70;68.80;;;;;;5091764;28;20039;-64
2022/09/02 12:01:14;;;;;;;4.80;1.30;;;22.80;68.00;;;;;;5109289;28;20536;-65
2022/09/02 12:03:46;;;;;;;3.50;1.50;;;22.80;69.10;;;;;;5081502;28;20453;-64
2022/09/02 12:06:20;;;;;;;4.75;1.35;;;22.90;69.30;;;;;;5091068;28;20080;-64
2022/09/02 12:08:47;;;;;;;4.70;1.50;;;23.00;69.80;;;;;;5114675;27;20532;-64
2022/09/02 12:11:40;;;;;;;4.55;1.40;;;23.00;69.70;;;;;;5074426;28;20126;-64
2022/09/02 12:14:27;;;;;;;4.38;1.38;;;23.20;68.30;;;;;;5099855;28;20043;-64
2022/09/02 12:17:07;;;;;;;3.42;1.45;;;23.20;68.30;;;;;;5059926;27;20055;-64
2022/09/02 12:19:40;;;;;;;3.17;1.15;;;23.20;68.40;;;;;;5128716;27;20061;-64
2022/09/02 12:22:16;;;;;;;3.83;1.40;;;23.30;68.30;;;;;;5109683;27;20146;-62
2022/09/02 12:24:54;;;;;;;3.33;1.40;;;23.30;68.70;;;;;;5103647;28;20046;-62
2022/09/02 12:27:27;;;;;;;3.83;1.20;;;23.30;68.10;;;;;;5099802;28;20046;-61
2022/09/02 12:29:55;;;;;;;4.05;1.25;;;23.40;67.10;;;;;;5091150;28;20060;-61
2022/09/02 12:32:47;;;;;;;2.90;1.30;;;23.40;66.60;;;;;;5106583;28;20141;-61
2022/09/02 12:35:31;;;;;;;3.85;1.20;;;23.50;66.40;;;;;;5090877;28;20083;-61
2022/09/02 12:38:27;;;;;;;3.93;1.20;;;23.50;66.70;;;;;;5109288;28;20123;-62
2022/09/02 12:41:05;;;;;;;5.25;1.42;;;23.50;65.90;;;;;;5078077;28;20408;-61
2022/09/02 12:44:08;;;;;;;4.93;1.50;;;23.50;66.60;;;;;;5071275;28;20040;-61
2022/09/02 12:46:53;;;;;;;3.55;1.50;;;23.60;66.30;;;;;;5086913;28;20046;-61
2022/09/02 12:49:42;;;;;;;6.05;1.98;;;23.60;65.90;;;;;;5095136;28;20128;-61
2022/09/02 12:52:10;;;;;;;4.25;1.30;;;23.60;66.70;;;;;;5098628;28;20048;-61
2022/09/02 12:54:38;;;;;;;5.22;1.17;;;23.70;66.90;;;;;;5097596;28;20043;-61
2022/09/02 12:57:08;;;;;;;6.55;1.60;;;23.80;64.90;;;;;;5101020;28;20507;-61
2022/09/02 12:59:39;;;;;;;3.83;1.10;;;23.80;65.40;;;;;;5090668;28;20135;-61
2022/09/02 13:02:24;;;;;;;5.22;1.48;;;23.80;65.70;;;;;;5074584;28;20134;-61
2022/09/02 13:05:14;;;;;;;3.90;1.45;;;23.90;64.70;;;;;;5110066;28;20049;-61
2022/09/02 13:07:55;;;;;;;4.10;1.60;;;24.00;64.90;;;;;;5104129;28;20042;-61
2022/09/02 13:10:45;;;;;;;4.35;1.52;;;24.00;64.40;;;;;;5082795;28;20044;-61
2022/09/02 13:13:56;;;;;;;6.13;1.50;;;23.90;64.10;;;;;;5073085;28;20059;-61